Aaron Joseph — WCV9877 — position and weather

sailwx.info

Track history (hours):
 
Tides and Currents Weather Stations Pressure Air Temp Water Temp Dewpoint Dewpoint Depression Visibility Wind Speed Wind Dir Waves Ship Positions

Aaron Joseph

Owner: AARON JOSEPH INC, GOLDEN MEADOW, LA. More information available from US FCC via Universal Licensing System and Coast Guard Vessel Documentation Center.

Last reported at 2017-Mar-28 10:17 UTC. Time now 2017-Mar-28 17:35 UTC.
Position N 29°43' W 095°13'.

; draft 2.5 m.

Type: Tug. MMSI: 367028680.

Date/timePositionNaut miles runAvg speedWind from/ knotsBaromVisibWave heightAir tempDewpointWater temp
2017-Mar-28 10:17N 29°43' W 095°13'0 0.0
2017-Mar-28 01:30N 29°43' W 095°13'0 0.0
2017-Mar-28 00:33N 29°43' W 095°13'0 0.0
2017-Mar-27 23:15N 29°43' W 095°13'0 0.0
2017-Mar-27 22:33N 29°43' W 095°13'0 0.0
2017-Mar-27 21:28N 29°43' W 095°13'0 0.0
2017-Mar-27 20:33N 29°43' W 095°13'0 0.0
2017-Mar-27 18:32N 29°43' W 095°13'0 0.0
2017-Mar-27 17:31N 29°43' W 095°13'0 0.0
2017-Mar-27 11:12N 29°43' W 095°13'3 3.9
2017-Mar-27 10:30N 29°45' W 095°11'4 4.3
2017-Mar-27 09:28N 29°45' W 095°06'3 3.3
2017-Mar-27 08:33N 29°44' W 095°03'4 4.1
2017-Mar-27 07:33N 29°41' W 094°59'3 2.9
2017-Mar-27 06:32N 29°41' W 094°56'0 0.0
2017-Mar-27 05:33N 29°41' W 094°56'0 0.1
2017-Mar-27 04:33N 29°41' W 094°56'0 0.0
2017-Mar-27 02:07N 29°41' W 094°56'2 2.7
2017-Mar-27 01:22N 29°41' W 094°58'3 3.6
2017-Mar-27 00:33N 29°42' W 095°01'7 3.2
2017-Mar-26 22:32N 29°44' W 095°08'4 3.7
2017-Mar-26 21:26N 29°43' W 095°13'2 0.3
2017-Mar-26 15:28N 29°43' W 095°15'3 2.9
2017-Mar-26 14:31N 29°45' W 095°17'1 0.8
2017-Mar-26 13:21N 29°44' W 095°17'3 3.1
2017-Mar-26 12:24N 29°43' W 095°13'1 0.7
2017-Mar-26 11:29N 29°44' W 095°13'4 4.4
2017-Mar-26 10:33N 29°44' W 095°08'4 3.9
2017-Mar-26 09:33N 29°44' W 095°04'5 4.7
2017-Mar-26 08:33N 29°42' W 094°59'3 3.3
2017-Mar-26 07:33N 29°41' W 094°56'0 0.0
2017-Mar-26 06:33N 29°41' W 094°56'0 0.0
2017-Mar-26 05:33N 29°41' W 094°56'0 0.0
2017-Mar-26 04:33N 29°41' W 094°56'0 0.1
2017-Mar-26 01:33N 29°41' W 094°56'3 2.9
2017-Mar-26 00:33N 29°41' W 094°59'4 3.9
2017-Mar-25 23:31N 29°44' W 095°02'3 3.3
2017-Mar-25 22:29N 29°45' W 095°06'4 4.4
2017-Mar-25 21:30N 29°45' W 095°11'2 0.7
2017-Mar-25 18:28N 29°43' W 095°13'0 0.0
2017-Mar-25 17:30N 29°43' W 095°13'0 0.0
2017-Mar-25 16:17N 29°44' W 095°13'0 0.0
2017-Mar-25 14:09N 29°44' W 095°13'0 0.1
2017-Mar-25 13:33N 29°44' W 095°14'0 0.1
2017-Mar-25 11:19N 29°43' W 095°13'0 0.0
2017-Mar-25 10:33N 29°43' W 095°13'0 0.0
2017-Mar-25 09:31N 29°43' W 095°13'0 0.0
2017-Mar-25 06:20N 29°43' W 095°13'0 0.0
2017-Mar-25 05:30N 29°44' W 095°13'0 0.0
2017-Mar-25 04:29N 29°43' W 095°13'0 0.0
2017-Mar-25 03:33N 29°43' W 095°13'0 0.0
2017-Mar-24 21:19N 29°44' W 095°13'0 0.0
2017-Mar-24 20:31N 29°43' W 095°13'0 0.0
2017-Mar-24 19:33N 29°43' W 095°13'0 0.0
2017-Mar-24 18:33N 29°43' W 095°13'0 0.0
2017-Mar-24 14:10N 29°43' W 095°13'0 0.2
2017-Mar-24 13:28N 29°44' W 095°14'0 0.0
2017-Mar-24 10:18N 29°43' W 095°13'0 0.0
2017-Mar-24 06:08N 29°43' W 095°13'1 1.8
2017-Mar-24 05:30N 29°44' W 095°12'4 4.6
2017-Mar-24 04:33N 29°44' W 095°07'3 3.1
2017-Mar-24 03:32N 29°45' W 095°04'4 4.6
2017-Mar-24 02:33N 29°42' W 094°60'3 3.3
2017-Mar-24 01:33N 29°41' W 094°56'1 0.2
2017-Mar-23 21:30N 29°41' W 094°56'3 1.7
2017-Mar-23 19:33N 29°42' W 094°59'5 3.7
2017-Mar-23 18:14N 29°45' W 095°04'6 3.8
2017-Mar-23 16:32N 29°45' W 095°11'2 1.1
2017-Mar-23 14:32N 29°43' W 095°13'0 0.0
2017-Mar-23 10:29N 29°43' W 095°13'0 0.0
2017-Mar-23 06:24N 29°43' W 095°13'0 0.0
2017-Mar-23 04:22N 29°43' W 095°13'0 0.0
2017-Mar-23 03:33N 29°43' W 095°13'0 0.0
2017-Mar-23 02:33N 29°43' W 095°13'1 1.1
2017-Mar-23 01:26N 29°44' W 095°12'4 4.9
2017-Mar-23 00:33N 29°44' W 095°07'4 4.0
2017-Mar-22 23:33N 29°44' W 095°03'4 4.1
2017-Mar-22 22:33N 29°41' W 094°59'3 3.0
2017-Mar-22 21:33N 29°40' W 094°56'0 0.5
2017-Mar-22 20:28N 29°41' W 094°56'0 0.0
2017-Mar-22 19:33N 29°41' W 094°56'0 0.0
2017-Mar-22 18:27N 29°41' W 094°56'0 0.1
2017-Mar-22 17:33N 29°41' W 094°56'0 0.1
2017-Mar-22 16:31N 29°41' W 094°56'2 1.6
2017-Mar-22 15:11N 29°41' W 094°58'3 3.9
2017-Mar-22 14:32N 29°42' W 095°01'7 3.7
2017-Mar-22 12:33N 29°44' W 095°09'4 2.0
2017-Mar-22 10:32N 29°43' W 095°13'0 0.0
2017-Mar-22 09:13N 29°43' W 095°13'0 0.0
2017-Mar-22 08:33N 29°43' W 095°13'0 0.0
2017-Mar-22 07:32N 29°43' W 095°13'0 0.0
2017-Mar-22 06:32N 29°43' W 095°13'0 0.0
2017-Mar-22 05:31N 29°43' W 095°13'0 0.0
2017-Mar-22 04:33N 29°43' W 095°13'0 0.0
2017-Mar-22 03:30N 29°43' W 095°13'0 0.0
2017-Mar-22 01:20N 29°43' W 095°13'0 0.0
2017-Mar-22 00:28N 29°43' W 095°13'0 0.0
2017-Mar-21 23:33N 29°43' W 095°13'0 0.0
2017-Mar-21 22:32N 29°43' W 095°13'0 0.0
2017-Mar-21 21:33N 29°43' W 095°13'0 0.0
2017-Mar-21 20:24N 29°43' W 095°13'0 0.0
2017-Mar-21 15:20N 29°43' W 095°13'0 0.0
2017-Mar-21 14:33N 29°43' W 095°13'0 0.0
2017-Mar-21 11:33N 29°43' W 095°13'0 0.0
2017-Mar-21 10:33N 29°43' W 095°13'0 0.0
2017-Mar-21 05:30N 29°44' W 095°14'0 0.2
2017-Mar-21 04:32N 29°43' W 095°13'0 0.0
2017-Mar-21 03:33N 29°43' W 095°13'0 0.0
2017-Mar-21 02:33N 29°43' W 095°13'0 0.0
2017-Mar-21 01:33N 29°43' W 095°13'0 0.0
2017-Mar-21 00:16N 29°43' W 095°13'0 0.0
2017-Mar-20 23:28N 29°43' W 095°13'0 0.0
2017-Mar-20 22:28N 29°43' W 095°13'0 0.0
2017-Mar-20 21:32N 29°43' W 095°13'0 0.0
2017-Mar-20 20:33N 29°43' W 095°13'0 0.0
2017-Mar-20 19:32N 29°43' W 095°13'0 0.0
2017-Mar-20 18:30N 29°43' W 095°13'0 0.1
2017-Mar-20 17:32N 29°44' W 095°13'4 4.0
2017-Mar-20 16:32N 29°44' W 095°09'4 4.5
2017-Mar-20 15:33N 29°45' W 095°04'5 4.9
2017-Mar-20 14:33N 29°42' W 094°60'6 5.7
2017-Mar-20 13:33N 29°36' W 094°57'6 5.6
2017-Mar-20 12:33N 29°32' W 094°53'75 4.2
2017-Mar-19 18:33N 30°04' W 093°35'6 5.6
2017-Mar-19 17:33N 30°04' W 093°29'6 5.7
2017-Mar-19 16:33N 30°04' W 093°22'4 4.3
2017-Mar-19 15:33N 30°05' W 093°18'1 1.3
2017-Mar-19 14:33N 30°04' W 093°16'5 4.8
2017-Mar-19 13:33N 30°00' W 093°14'1 0.8
2017-Mar-19 12:33N 29°60' W 093°13'0 0.0
2017-Mar-19 11:33N 29°60' W 093°13'0 0.0
2017-Mar-19 10:33N 29°60' W 093°13'0 0.0
2017-Mar-19 09:33N 29°60' W 093°13'0 0.0
2017-Mar-19 08:33N 29°60' W 093°13'4 4.5
2017-Mar-19 07:33N 29°56' W 093°10'34 4.8
2017-Mar-19 00:18N 29°54' W 092°30'4 5.5
2017-Mar-18 23:33N 29°53' W 092°25'5 5.1
2017-Mar-18 22:33N 29°51' W 092°20'4 4.1
2017-Mar-18 21:33N 29°49' W 092°16'2 2.0
2017-Mar-18 20:33N 29°48' W 092°14'1 0.9
2017-Mar-18 19:33N 29°47' W 092°13'0 0.0
2017-Mar-18 18:33N 29°47' W 092°13'0 0.1
2017-Mar-18 17:33N 29°47' W 092°13'0 0.0
2017-Mar-18 16:33N 29°47' W 092°13'0 0.0
2017-Mar-18 15:33N 29°47' W 092°13'0 0.0
2017-Mar-18 14:33N 29°47' W 092°13'0 0.0
2017-Mar-18 13:33N 29°47' W 092°13'0 0.0
2017-Mar-18 12:33N 29°47' W 092°13'0 0.0
2017-Mar-18 11:33N 29°47' W 092°13'0 0.0
2017-Mar-18 10:33N 29°47' W 092°13'  
Track history (hours):
 
Tides and Currents Weather Stations Pressure Air Temp Water Temp Dewpoint Dewpoint Depression Visibility Wind Speed Wind Dir Waves Ship Positions

Aaron Joseph

Owner: AARON JOSEPH INC, GOLDEN MEADOW, LA. More information available from US FCC via Universal Licensing System and Coast Guard Vessel Documentation Center.

Last reported at 2017-Mar-28 10:17 UTC. Time now 2017-Mar-28 17:35 UTC.
Position N 29°43' W 095°13'.

; draft 2.5 m.

Type: Tug. MMSI: 367028680.

Date/timePositionNaut miles runAvg speedWind from/ knotsBaromVisibWave heightAir tempDewpointWater temp
2017-Mar-28 10:17N 29°43' W 095°13'0 0.0
2017-Mar-28 01:30N 29°43' W 095°13'0 0.0
2017-Mar-28 00:33N 29°43' W 095°13'0 0.0
2017-Mar-27 23:15N 29°43' W 095°13'0 0.0
2017-Mar-27 22:33N 29°43' W 095°13'0 0.0
2017-Mar-27 21:28N 29°43' W 095°13'0 0.0
2017-Mar-27 20:33N 29°43' W 095°13'0 0.0
2017-Mar-27 18:32N 29°43' W 095°13'0 0.0
2017-Mar-27 17:31N 29°43' W 095°13'0 0.0
2017-Mar-27 11:12N 29°43' W 095°13'3 3.9
2017-Mar-27 10:30N 29°45' W 095°11'4 4.3
2017-Mar-27 09:28N 29°45' W 095°06'3 3.3
2017-Mar-27 08:33N 29°44' W 095°03'4 4.1
2017-Mar-27 07:33N 29°41' W 094°59'3 2.9
2017-Mar-27 06:32N 29°41' W 094°56'0 0.0
2017-Mar-27 05:33N 29°41' W 094°56'0 0.1
2017-Mar-27 04:33N 29°41' W 094°56'0 0.0
2017-Mar-27 02:07N 29°41' W 094°56'2 2.7
2017-Mar-27 01:22N 29°41' W 094°58'3 3.6
2017-Mar-27 00:33N 29°42' W 095°01'7 3.2
2017-Mar-26 22:32N 29°44' W 095°08'4 3.7
2017-Mar-26 21:26N 29°43' W 095°13'2 0.3
2017-Mar-26 15:28N 29°43' W 095°15'3 2.9
2017-Mar-26 14:31N 29°45' W 095°17'1 0.8
2017-Mar-26 13:21N 29°44' W 095°17'3 3.1
2017-Mar-26 12:24N 29°43' W 095°13'1 0.7
2017-Mar-26 11:29N 29°44' W 095°13'4 4.4
2017-Mar-26 10:33N 29°44' W 095°08'4 3.9
2017-Mar-26 09:33N 29°44' W 095°04'5 4.7
2017-Mar-26 08:33N 29°42' W 094°59'3 3.3
2017-Mar-26 07:33N 29°41' W 094°56'0 0.0
2017-Mar-26 06:33N 29°41' W 094°56'0 0.0
2017-Mar-26 05:33N 29°41' W 094°56'0 0.0
2017-Mar-26 04:33N 29°41' W 094°56'0 0.1
2017-Mar-26 01:33N 29°41' W 094°56'3 2.9
2017-Mar-26 00:33N 29°41' W 094°59'4 3.9
2017-Mar-25 23:31N 29°44' W 095°02'3 3.3
2017-Mar-25 22:29N 29°45' W 095°06'4 4.4
2017-Mar-25 21:30N 29°45' W 095°11'2 0.7
2017-Mar-25 18:28N 29°43' W 095°13'0 0.0
2017-Mar-25 17:30N 29°43' W 095°13'0 0.0
2017-Mar-25 16:17N 29°44' W 095°13'0 0.0
2017-Mar-25 14:09N 29°44' W 095°13'0 0.1
2017-Mar-25 13:33N 29°44' W 095°14'0 0.1
2017-Mar-25 11:19N 29°43' W 095°13'0 0.0
2017-Mar-25 10:33N 29°43' W 095°13'0 0.0
2017-Mar-25 09:31N 29°43' W 095°13'0 0.0
2017-Mar-25 06:20N 29°43' W 095°13'0 0.0
2017-Mar-25 05:30N 29°44' W 095°13'0 0.0
2017-Mar-25 04:29N 29°43' W 095°13'0 0.0
2017-Mar-25 03:33N 29°43' W 095°13'0 0.0
2017-Mar-24 21:19N 29°44' W 095°13'0 0.0
2017-Mar-24 20:31N 29°43' W 095°13'0 0.0
2017-Mar-24 19:33N 29°43' W 095°13'0 0.0
2017-Mar-24 18:33N 29°43' W 095°13'0 0.0
2017-Mar-24 14:10N 29°43' W 095°13'0 0.2
2017-Mar-24 13:28N 29°44' W 095°14'0 0.0
2017-Mar-24 10:18N 29°43' W 095°13'0 0.0
2017-Mar-24 06:08N 29°43' W 095°13'1 1.8
2017-Mar-24 05:30N 29°44' W 095°12'4 4.6
2017-Mar-24 04:33N 29°44' W 095°07'3 3.1
2017-Mar-24 03:32N 29°45' W 095°04'4 4.6
2017-Mar-24 02:33N 29°42' W 094°60'3 3.3
2017-Mar-24 01:33N 29°41' W 094°56'1 0.2
2017-Mar-23 21:30N 29°41' W 094°56'3 1.7
2017-Mar-23 19:33N 29°42' W 094°59'5 3.7
2017-Mar-23 18:14N 29°45' W 095°04'6 3.8
2017-Mar-23 16:32N 29°45' W 095°11'2 1.1
2017-Mar-23 14:32N 29°43' W 095°13'0 0.0
2017-Mar-23 10:29N 29°43' W 095°13'0 0.0
2017-Mar-23 06:24N 29°43' W 095°13'0 0.0
2017-Mar-23 04:22N 29°43' W 095°13'0 0.0
2017-Mar-23 03:33N 29°43' W 095°13'0 0.0
2017-Mar-23 02:33N 29°43' W 095°13'1 1.1
2017-Mar-23 01:26N 29°44' W 095°12'4 4.9
2017-Mar-23 00:33N 29°44' W 095°07'4 4.0
2017-Mar-22 23:33N 29°44' W 095°03'4 4.1
2017-Mar-22 22:33N 29°41' W 094°59'3 3.0
2017-Mar-22 21:33N 29°40' W 094°56'0 0.5
2017-Mar-22 20:28N 29°41' W 094°56'0 0.0
2017-Mar-22 19:33N 29°41' W 094°56'0 0.0
2017-Mar-22 18:27N 29°41' W 094°56'0 0.1
2017-Mar-22 17:33N 29°41' W 094°56'0 0.1
2017-Mar-22 16:31N 29°41' W 094°56'2 1.6
2017-Mar-22 15:11N 29°41' W 094°58'3 3.9
2017-Mar-22 14:32N 29°42' W 095°01'7 3.7
2017-Mar-22 12:33N 29°44' W 095°09'4 2.0
2017-Mar-22 10:32N 29°43' W 095°13'0 0.0
2017-Mar-22 09:13N 29°43' W 095°13'0 0.0
2017-Mar-22 08:33N 29°43' W 095°13'0 0.0
2017-Mar-22 07:32N 29°43' W 095°13'0 0.0
2017-Mar-22 06:32N 29°43' W 095°13'0 0.0
2017-Mar-22 05:31N 29°43' W 095°13'0 0.0
2017-Mar-22 04:33N 29°43' W 095°13'0 0.0
2017-Mar-22 03:30N 29°43' W 095°13'0 0.0
2017-Mar-22 01:20N 29°43' W 095°13'0 0.0
2017-Mar-22 00:28N 29°43' W 095°13'0 0.0
2017-Mar-21 23:33N 29°43' W 095°13'0 0.0
2017-Mar-21 22:32N 29°43' W 095°13'0 0.0
2017-Mar-21 21:33N 29°43' W 095°13'0 0.0
2017-Mar-21 20:24N 29°43' W 095°13'0 0.0
2017-Mar-21 15:20N 29°43' W 095°13'0 0.0
2017-Mar-21 14:33N 29°43' W 095°13'0 0.0
2017-Mar-21 11:33N 29°43' W 095°13'0 0.0
2017-Mar-21 10:33N 29°43' W 095°13'0 0.0
2017-Mar-21 05:30N 29°44' W 095°14'0 0.2
2017-Mar-21 04:32N 29°43' W 095°13'0 0.0
2017-Mar-21 03:33N 29°43' W 095°13'0 0.0
2017-Mar-21 02:33N 29°43' W 095°13'0 0.0
2017-Mar-21 01:33N 29°43' W 095°13'0 0.0
2017-Mar-21 00:16N 29°43' W 095°13'0 0.0
2017-Mar-20 23:28N 29°43' W 095°13'0 0.0
2017-Mar-20 22:28N 29°43' W 095°13'0 0.0
2017-Mar-20 21:32N 29°43' W 095°13'0 0.0
2017-Mar-20 20:33N 29°43' W 095°13'0 0.0
2017-Mar-20 19:32N 29°43' W 095°13'0 0.0
2017-Mar-20 18:30N 29°43' W 095°13'0 0.1
2017-Mar-20 17:32N 29°44' W 095°13'4 4.0
2017-Mar-20 16:32N 29°44' W 095°09'4 4.5
2017-Mar-20 15:33N 29°45' W 095°04'5 4.9
2017-Mar-20 14:33N 29°42' W 094°60'6 5.7
2017-Mar-20 13:33N 29°36' W 094°57'6 5.6
2017-Mar-20 12:33N 29°32' W 094°53'75 4.2
2017-Mar-19 18:33N 30°04' W 093°35'6 5.6
2017-Mar-19 17:33N 30°04' W 093°29'6 5.7
2017-Mar-19 16:33N 30°04' W 093°22'4 4.3
2017-Mar-19 15:33N 30°05' W 093°18'1 1.3
2017-Mar-19 14:33N 30°04' W 093°16'5 4.8
2017-Mar-19 13:33N 30°00' W 093°14'1 0.8
2017-Mar-19 12:33N 29°60' W 093°13'0 0.0
2017-Mar-19 11:33N 29°60' W 093°13'0 0.0
2017-Mar-19 10:33N 29°60' W 093°13'0 0.0
2017-Mar-19 09:33N 29°60' W 093°13'0 0.0
2017-Mar-19 08:33N 29°60' W 093°13'4 4.5
2017-Mar-19 07:33N 29°56' W 093°10'34 4.8
2017-Mar-19 00:18N 29°54' W 092°30'4 5.5
2017-Mar-18 23:33N 29°53' W 092°25'5 5.1
2017-Mar-18 22:33N 29°51' W 092°20'4 4.1
2017-Mar-18 21:33N 29°49' W 092°16'2 2.0
2017-Mar-18 20:33N 29°48' W 092°14'1 0.9
2017-Mar-18 19:33N 29°47' W 092°13'0 0.0
2017-Mar-18 18:33N 29°47' W 092°13'0 0.1
2017-Mar-18 17:33N 29°47' W 092°13'0 0.0
2017-Mar-18 16:33N 29°47' W 092°13'0 0.0
2017-Mar-18 15:33N 29°47' W 092°13'0 0.0
2017-Mar-18 14:33N 29°47' W 092°13'0 0.0
2017-Mar-18 13:33N 29°47' W 092°13'0 0.0
2017-Mar-18 12:33N 29°47' W 092°13'0 0.0
2017-Mar-18 11:33N 29°47' W 092°13'0 0.0
2017-Mar-18 10:33N 29°47' W 092°13'  

Dump ship's entire track history